Time;durP1;ratioP1;P1;durP2;ratioP2;P2;SDS_P1;SDS_P2;PMS_P1;PMS_P2;Temp;Humidity;BMP_temperature;BMP_pressure;BME280_temperature;BME280_humidity;BME280_pressure;Samples;Min_cycle;Max_cycle;Signal;HPM_P1;HPM_P2
2021/12/12 00:00:33;;;;;;;18.70;7.03;;;;;;;-6.00;100.00;101701.56;5019396;28;20098;-69
2021/12/12 00:03:33;;;;;;;15.45;6.35;;;;;;;-5.85;100.00;101704.41;5022666;28;20049;-64
2021/12/12 00:06:18;;;;;;;16.00;6.60;;;;;;;-6.02;100.00;101692.78;5022096;28;20532;-67
2021/12/12 00:09:09;;;;;;;;;;;;;;;-5.95;100.00;101689.91;5032522;28;20095;-64
2021/12/12 00:11:55;;;;;;;11.52;5.82;;;;;;;-6.32;100.00;101698.22;5021510;28;19944;-69
2021/12/12 00:14:40;;;;;;;19.90;6.30;;;;;;;-6.19;100.00;101689.72;5020178;28;20052;-64
2021/12/12 00:17:25;;;;;;;;;;;;;;;-6.09;100.00;101702.53;5019208;28;20060;-67
2021/12/12 00:20:12;;;;;;;14.40;6.22;;;;;;;-6.10;100.00;101699.06;5021868;28;19928;-70
2021/12/12 00:22:59;;;;;;;16.45;6.38;;;;;;;-6.07;100.00;101694.13;5006127;28;20529;-68
2021/12/12 00:25:51;;;;;;;13.50;6.63;;;;;;;-5.99;100.00;101705.03;5020831;28;20149;-69
2021/12/12 00:28:37;;;;;;;15.25;6.05;;;;;;;-6.17;100.00;101714.84;5006403;28;20405;-68
2021/12/12 00:31:25;;;;;;;23.33;6.40;;;;;;;-5.93;100.00;101714.13;5017254;28;20115;-68
2021/12/12 00:34:10;;;;;;;15.68;7.30;;;;;;;-6.16;100.00;101723.50;5014890;28;20076;-68
2021/12/12 00:36:55;;;;;;;19.60;7.43;;;;;;;-6.20;100.00;101722.38;5020337;28;20080;-66
2021/12/12 00:39:48;;;;;;;24.42;8.20;;;;;;;-6.04;100.00;101724.44;5028379;28;20184;-68
2021/12/12 00:42:36;;;;;;;21.58;7.35;;;;;;;-5.90;100.00;101713.47;4990332;28;20115;-68
2021/12/12 00:45:22;;;;;;;22.70;8.35;;;;;;;-6.08;100.00;101717.25;5021042;28;20056;-66
2021/12/12 00:48:08;;;;;;;22.50;8.60;;;;;;;-6.00;100.00;101722.22;5021139;28;20099;-67
2021/12/12 00:50:53;;;;;;;20.88;9.00;;;;;;;-5.78;100.00;101715.25;5021562;28;20139;-66
2021/12/12 00:53:40;;;;;;;28.10;9.02;;;;;;;-5.79;100.00;101710.88;5025108;28;20422;-67
2021/12/12 00:56:27;;;;;;;22.65;9.00;;;;;;;-5.74;100.00;101719.88;5025255;28;20047;-65
2021/12/12 00:59:13;;;;;;;22.75;8.88;;;;;;;-5.88;100.00;101719.66;5019639;28;20048;-70
2021/12/12 01:01:59;;;;;;;22.88;8.35;;;;;;;-5.76;100.00;101724.03;5026748;28;20103;-67
2021/12/12 01:04:50;;;;;;;27.98;10.18;;;;;;;-5.77;100.00;101705.84;5021048;28;20053;-63
2021/12/12 01:07:39;;;;;;;22.95;9.40;;;;;;;-5.68;100.00;101733.25;5013661;28;20088;-66
2021/12/12 01:10:32;;;;;;;23.27;9.50;;;;;;;-5.56;100.00;101729.00;5021518;28;20072;-62
2021/12/12 01:13:18;;;;;;;21.90;8.73;;;;;;;-5.53;100.00;101736.97;5017726;28;20041;-62
2021/12/12 01:16:11;;;;;;;21.40;8.63;;;;;;;-5.53;100.00;101718.88;5013267;28;20197;-63
2021/12/12 01:19:01;;;;;;;17.58;7.78;;;;;;;-5.81;100.00;101727.09;5021916;28;20057;-63
2021/12/12 01:21:50;;;;;;;20.50;7.60;;;;;;;-5.63;100.00;101738.75;5020587;28;20055;-66
2021/12/12 01:24:41;;;;;;;20.27;7.50;;;;;;;-5.69;100.00;101746.94;5022739;28;20130;-66
2021/12/12 01:27:25;;;;;;;18.27;7.47;;;;;;;-5.66;100.00;101738.53;5019743;28;20052;-64
2021/12/12 01:30:13;;;;;;;18.30;6.93;;;;;;;-5.51;100.00;101744.81;5019009;28;20084;-69
2021/12/12 01:32:58;;;;;;;15.85;6.70;;;;;;;-5.47;100.00;101733.94;5023043;28;20052;-64
2021/12/12 01:35:43;;;;;;;14.77;6.75;;;;;;;-5.60;100.00;101728.66;5019162;28;20060;-64
2021/12/12 01:41:52;;;;;;;15.20;6.40;;;;;;;-5.81;100.00;101717.63;5028824;28;19927;-63
2021/12/12 01:44:49;;;;;;;;;;;;;;;-5.70;100.00;101714.13;5017127;28;20052;-64
2021/12/12 01:47:36;;;;;;;15.23;6.55;;;;;;;-5.85;100.00;101714.72;5008460;28;19924;-64
2021/12/12 01:50:36;;;;;;;15.73;7.82;;;;;;;-5.75;100.00;101722.31;5009333;28;20052;-60
2021/12/12 01:53:26;;;;;;;18.40;7.18;;;;;;;-5.61;100.00;101721.69;5016043;28;20080;-60
2021/12/12 01:56:12;;;;;;;16.75;6.95;;;;;;;-5.83;100.00;101702.81;5008943;28;20081;-61
2021/12/12 01:59:09;;;;;;;16.70;7.32;;;;;;;-5.65;100.00;101717.97;5006517;28;20158;-63
2021/12/12 02:02:01;;;;;;;16.45;7.43;;;;;;;-5.83;100.00;101706.31;5005793;28;20225;-63
2021/12/12 02:04:52;;;;;;;19.20;7.47;;;;;;;-5.89;100.00;101710.13;5014353;28;20060;-62
2021/12/12 02:07:45;;;;;;;20.77;8.15;;;;;;;-5.86;100.00;101705.16;5009518;28;20409;-64
2021/12/12 02:10:36;;;;;;;19.25;7.63;;;;;;;-5.87;100.00;101714.59;5023378;28;20564;-63
2021/12/12 02:13:24;;;;;;;18.08;7.32;;;;;;;-6.10;100.00;101708.47;5024476;28;20114;-64
2021/12/12 02:16:11;;;;;;;19.02;7.93;;;;;;;-6.16;100.00;101705.44;5024119;28;20119;-65
2021/12/12 02:18:59;;;;;;;17.13;7.03;;;;;;;-6.45;100.00;101700.63;5024708;28;20064;-64
2021/12/12 02:37:06;;;;;;;18.33;7.68;;;;;;;-5.83;100.00;101707.97;5039096;28;19927;-62
2021/12/12 02:39:51;;;;;;;21.50;7.65;;;;;;;-6.03;100.00;101696.16;5025212;28;20052;-64
2021/12/12 02:42:38;;;;;;;20.48;7.70;;;;;;;-6.14;100.00;101696.09;5024717;28;20056;-62
2021/12/12 02:45:24;;;;;;;21.55;7.80;;;;;;;-6.07;100.00;101709.63;5025551;28;20099;-61
2021/12/12 02:48:16;;;;;;;26.90;9.15;;;;;;;-5.99;100.00;101712.78;5019428;28;20057;-67
2021/12/12 02:51:07;;;;;;;24.88;7.85;;;;;;;-5.98;100.00;101705.16;5030711;28;20581;-62
2021/12/12 02:53:56;;;;;;;21.88;8.88;;;;;;;-5.95;100.00;101705.38;5005835;28;20064;-62
2021/12/12 02:56:46;;;;;;;27.38;9.38;;;;;;;-6.17;100.00;101707.09;5006896;28;20052;-63
2021/12/12 02:59:31;;;;;;;26.33;9.50;;;;;;;-6.27;100.00;101701.13;5021841;28;20416;-63
2021/12/12 03:02:25;;;;;;;24.45;8.73;;;;;;;-6.03;100.00;101697.84;5003746;28;20044;-64
2021/12/12 03:05:12;;;;;;;23.85;8.98;;;;;;;-5.97;100.00;101693.16;5019073;28;20523;-64
2021/12/12 03:07:58;;;;;;;28.67;8.90;;;;;;;-5.88;100.00;101696.41;5030626;28;20048;-63
2021/12/12 03:10:47;;;;;;;27.88;9.43;;;;;;;-6.02;100.00;101705.69;5001887;28;20520;-67
2021/12/12 03:13:32;;;;;;;30.45;10.27;;;;;;;-5.95;100.00;101695.06;5038775;28;20064;-65
2021/12/12 03:16:17;;;;;;;29.85;10.43;;;;;;;-6.00;100.00;101693.81;5023689;28;20103;-63
2021/12/12 03:19:04;;;;;;;25.13;8.90;;;;;;;-6.05;100.00;101692.56;5024989;28;20152;-67
2021/12/12 03:21:49;;;;;;;28.27;10.23;;;;;;;-6.04;100.00;101694.38;5026808;28;20106;-65
2021/12/12 03:24:33;;;;;;;32.10;10.00;;;;;;;-6.04;100.00;101681.47;5027552;28;20456;-68
2021/12/12 03:27:20;;;;;;;30.30;10.18;;;;;;;-5.91;100.00;101688.44;5023893;28;20099;-64
2021/12/12 03:30:07;;;;;;;36.05;9.95;;;;;;;-5.92;100.00;101690.13;5010887;28;20465;-63
2021/12/12 03:32:51;;;;;;;29.33;10.48;;;;;;;-5.97;100.00;101694.03;5023179;28;20057;-64
2021/12/12 03:35:37;;;;;;;29.83;10.52;;;;;;;-6.09;100.00;101700.84;5009818;28;20060;-65
2021/12/12 03:38:27;;;;;;;34.33;11.00;;;;;;;-6.31;100.00;101706.84;5034892;28;20115;-64
2021/12/12 03:41:16;;;;;;;34.88;10.88;;;;;;;-6.16;100.00;101696.03;5025343;28;20056;-64
2021/12/12 03:44:09;;;;;;;36.92;11.63;;;;;;;-6.21;100.00;101694.75;5008084;28;20479;-66
2021/12/12 03:46:58;;;;;;;28.92;10.10;;;;;;;-6.07;100.00;101691.56;5020350;28;20148;-65
2021/12/12 03:49:43;;;;;;;34.47;10.88;;;;;;;-6.21;100.00;101689.59;5016216;28;20048;-66
2021/12/12 03:52:29;;;;;;;39.60;10.85;;;;;;;-6.06;100.00;101698.50;5024155;28;20957;-64
2021/12/12 03:55:15;;;;;;;32.17;10.88;;;;;;;-6.09;100.00;101694.81;5027565;28;20071;-64
2021/12/12 03:58:05;;;;;;;33.50;11.27;;;;;;;-6.24;100.00;101667.81;5026494;28;20052;-66
2021/12/12 04:01:13;;;;;;;36.83;10.00;;;;;;;-6.26;100.00;101688.34;5018923;28;20060;-67
2021/12/12 04:04:06;;;;;;;30.60;10.18;;;;;;;-6.29;100.00;101689.81;5014000;28;20045;-66
2021/12/12 04:06:51;;;;;;;34.83;10.45;;;;;;;-6.37;100.00;101688.31;5026904;28;20478;-64
2021/12/12 04:09:38;;;;;;;36.28;10.93;;;;;;;-6.31;100.00;101681.03;5021663;28;20088;-65
2021/12/12 04:12:24;;;;;;;32.63;10.52;;;;;;;-6.26;100.00;101679.69;5006993;28;20060;-66
2021/12/12 04:15:09;;;;;;;35.25;10.95;;;;;;;-6.35;100.00;101685.06;5008006;28;20187;-66
2021/12/12 04:17:54;;;;;;;34.55;11.77;;;;;;;-6.38;100.00;101684.81;5035693;28;20057;-65
2021/12/12 04:20:39;;;;;;;31.92;11.23;;;;;;;-6.41;100.00;101686.28;5016221;28;20566;-67
2021/12/12 04:23:29;;;;;;;36.60;10.63;;;;;;;-6.26;100.00;101696.09;5001388;28;20057;-68
2021/12/12 04:26:25;;;;;;;32.53;9.10;;;;;;;-6.06;100.00;101689.84;5013659;28;20413;-68
2021/12/12 04:29:18;;;;;;;26.85;9.30;;;;;;;-5.86;100.00;101689.66;5016563;28;20049;-65
2021/12/12 04:32:17;;;;;;;34.90;10.43;;;;;;;-5.90;100.00;101687.63;5024238;28;20130;-67
2021/12/12 04:35:12;;;;;;;34.67;10.18;;;;;;;-5.81;100.00;101690.94;5027073;28;20064;-68
2021/12/12 04:37:59;;;;;;;38.03;10.67;;;;;;;-5.96;100.00;101687.19;5013336;28;20148;-65
2021/12/12 04:40:43;;;;;;;35.70;10.88;;;;;;;-5.97;100.00;101690.56;5013955;28;20535;-66
2021/12/12 04:43:28;;;;;;;37.35;10.90;;;;;;;-6.13;100.00;101683.31;5024071;28;20456;-64
2021/12/12 04:46:23;;;;;;;46.85;10.90;;;;;;;-6.01;100.00;101699.75;5018148;28;20096;-64
2021/12/12 04:52:13;;;;;;;38.95;11.20;;;;;;;-5.80;100.00;101706.50;5014857;28;20049;-67
2021/12/12 04:55:06;;;;;;;39.25;11.02;;;;;;;-5.66;100.00;101699.78;5014900;28;20053;-65
2021/12/12 04:58:05;;;;;;;34.22;10.13;;;;;;;-5.62;100.00;101701.81;5024671;28;20428;-60
2021/12/12 05:00:56;;;;;;;37.03;11.48;;;;;;;-5.70;100.00;101705.50;5006361;28;20048;-64
2021/12/12 05:03:57;;;;;;;40.72;11.65;;;;;;;-5.64;100.00;101698.19;5015089;28;20052;-62
2021/12/12 05:07:25;;;;;;;40.20;12.35;;;;;;;-5.70;100.00;101708.97;5018306;28;20048;-63
2021/12/12 05:10:23;;;;;;;38.88;10.93;;;;;;;-5.99;100.00;101705.03;4984212;28;20181;-62
2021/12/12 05:13:25;;;;;;;40.63;11.30;;;;;;;-6.09;100.00;101702.53;4972633;28;20085;-63
2021/12/12 05:16:19;;;;;;;36.35;11.30;;;;;;;-6.30;100.00;101713.78;4997064;28;20492;-65
2021/12/12 05:19:18;;;;;;;39.53;10.60;;;;;;;-6.15;100.00;101715.88;4998881;28;20634;-65
2021/12/12 05:22:14;;;;;;;33.42;12.15;;;;;;;-5.88;100.00;101717.97;4997235;28;20203;-63
2021/12/12 05:25:01;;;;;;;37.55;12.02;;;;;;;-5.94;100.00;101716.59;4998199;28;20092;-64
2021/12/12 05:27:51;;;;;;;36.22;11.25;;;;;;;-6.17;100.00;101725.19;4987657;28;20049;-63
2021/12/12 05:30:37;;;;;;;36.08;11.00;;;;;;;-6.27;100.00;101720.09;4987536;28;20053;-64
2021/12/12 05:33:24;;;;;;;35.88;12.13;;;;;;;-6.29;100.00;101721.66;4999452;28;20133;-63
2021/12/12 05:36:11;;;;;;;32.25;11.15;;;;;;;-6.33;100.00;101735.09;4984304;28;20450;-67
2021/12/12 05:38:58;;;;;;;40.78;11.13;;;;;;;-6.46;100.00;101729.78;4996493;28;20080;-67
2021/12/12 05:41:43;;;;;;;35.70;11.43;;;;;;;-6.50;100.00;101729.41;5001191;28;20073;-65
2021/12/12 05:44:31;;;;;;;38.45;10.98;;;;;;;-6.24;100.00;101729.75;5007313;28;20267;-70
2021/12/12 05:47:17;;;;;;;40.55;12.35;;;;;;;-6.06;100.00;101731.16;5007874;28;21297;-66
2021/12/12 05:50:06;;;;;;;42.40;11.63;;;;;;;-5.95;100.00;101738.94;5011605;28;20048;-66
2021/12/12 05:52:54;;;;;;;42.15;11.95;;;;;;;-5.86;100.00;101728.41;5020589;28;20188;-64
2021/12/12 05:55:41;;;;;;;38.47;11.85;;;;;;;-5.86;100.00;101726.72;5016538;28;20053;-68
2021/12/12 05:58:26;;;;;;;36.70;11.00;;;;;;;-6.02;100.00;101728.03;5004817;28;20200;-65
2021/12/12 06:01:11;;;;;;;38.15;11.32;;;;;;;-5.88;100.00;101727.41;5022617;28;20056;-68
2021/12/12 06:03:57;;;;;;;37.25;11.45;;;;;;;-5.75;100.00;101725.81;5022526;28;20048;-70
2021/12/12 06:06:44;;;;;;;44.90;12.00;;;;;;;-5.64;100.00;101724.94;5020459;28;20129;-65
2021/12/12 06:09:31;;;;;;;38.85;11.98;;;;;;;-5.72;100.00;101723.47;5007405;28;20044;-67
2021/12/12 06:12:18;;;;;;;35.30;10.70;;;;;;;-5.71;100.00;101729.53;5022104;28;20164;-67
2021/12/12 06:15:09;;;;;;;41.75;11.30;;;;;;;-5.69;100.00;101735.72;5007438;28;20044;-66
2021/12/12 06:17:55;;;;;;;33.75;10.52;;;;;;;-5.56;100.00;101733.25;5021590;28;20531;-67
2021/12/12 06:20:42;;;;;;;41.53;11.98;;;;;;;-5.56;100.00;101728.09;5016812;28;20076;-68
2021/12/12 06:23:28;;;;;;;33.83;10.85;;;;;;;-5.51;100.00;101708.66;5006928;28;20133;-66
2021/12/12 06:26:13;;;;;;;40.85;11.27;;;;;;;-5.73;100.00;101728.53;5020084;28;20099;-64
2021/12/12 06:28:57;;;;;;;38.20;11.98;;;;;;;-5.55;100.00;101715.28;5018818;28;20187;-66
2021/12/12 06:31:44;;;;;;;;;;;;;;;-5.38;100.00;101724.28;5013770;28;20053;-69
2021/12/12 06:34:32;;;;;;;41.83;12.35;;;;;;;-5.48;100.00;101725.31;5013819;28;20317;-66
2021/12/12 06:37:17;;;;;;;41.97;11.70;;;;;;;-5.41;100.00;101724.94;5018039;28;20056;-76
2021/12/12 06:40:06;;;;;;;37.53;11.27;;;;;;;-5.47;100.00;101721.00;5017807;28;20048;-69
2021/12/12 06:42:54;;;;;;;41.10;12.68;;;;;;;-5.33;100.00;101718.66;5023922;28;20064;-65
2021/12/12 06:45:40;;;;;;;42.00;12.48;;;;;;;-5.27;100.00;101718.19;5007401;28;20057;-66
2021/12/12 06:48:26;;;;;;;39.55;11.68;;;;;;;-5.31;100.00;101722.25;5013995;28;20064;-66
2021/12/12 06:51:12;;;;;;;47.20;12.95;;;;;;;-5.35;100.00;101711.56;4993994;28;20056;-60
2021/12/12 06:53:56;;;;;;;49.92;12.80;;;;;;;-5.26;100.00;101714.84;5012835;28;20052;-64
2021/12/12 06:56:41;;;;;;;;;;;;;;;-5.45;100.00;101722.03;5006290;28;20143;-69
2021/12/12 06:59:29;;;;;;;41.92;12.40;;;;;;;-5.41;100.00;101713.72;5021486;28;19924;-70
2021/12/12 07:02:14;;;;;;;42.03;12.73;;;;;;;-5.48;100.00;101734.72;5019171;28;20060;-65
2021/12/12 07:05:05;;;;;;;45.58;12.38;;;;;;;-5.29;100.00;101724.97;5025733;28;20479;-66
2021/12/12 07:07:53;;;;;;;44.92;14.13;;;;;;;-5.16;100.00;101732.81;5039374;28;20413;-61
2021/12/12 07:10:39;;;;;;;46.60;12.50;;;;;;;-5.22;100.00;101730.69;5027330;28;20044;-65
2021/12/12 07:13:24;;;;;;;43.05;13.65;;;;;;;-5.06;100.00;101738.75;5015872;28;20051;-80
2021/12/12 07:16:09;;;;;;;44.92;13.68;;;;;;;-5.08;100.00;101737.78;5023896;28;20129;-62
2021/12/12 07:18:57;;;;;;;47.88;14.43;;;;;;;-4.99;100.00;101734.94;5014433;28;20448;-62
2021/12/12 07:21:44;;;;;;;51.70;13.95;;;;;;;-4.94;100.00;101738.78;5031859;28;20074;-62
2021/12/12 07:24:31;;;;;;;62.67;15.32;;;;;;;-5.18;100.00;101726.66;5027050;28;20045;-64
2021/12/12 07:27:17;;;;;;;51.40;15.43;;;;;;;-5.11;100.00;101726.28;5022135;28;20420;-72
2021/12/12 07:30:05;;;;;;;58.38;14.93;;;;;;;-4.99;100.00;101727.16;5015796;28;20413;-64
2021/12/12 07:32:51;;;;;;;58.92;15.95;;;;;;;-5.12;100.00;101730.56;5010602;28;20091;-65
2021/12/12 07:35:40;;;;;;;52.22;16.00;;;;;;;-5.00;100.00;101727.97;5025762;28;20048;-65
2021/12/12 07:38:25;;;;;;;63.38;16.98;;;;;;;-5.05;100.00;101719.00;5031671;28;20061;-76
2021/12/12 07:41:12;;;;;;;56.50;15.90;;;;;;;-4.95;100.00;101717.16;5010637;28;22063;-70
2021/12/12 07:43:58;;;;;;;56.35;15.95;;;;;;;-4.79;100.00;101701.03;5019144;28;20057;-68
2021/12/12 07:46:44;;;;;;;54.15;14.13;;;;;;;-4.90;100.00;101700.28;5023853;28;20052;-69
2021/12/12 07:49:34;;;;;;;52.67;15.23;;;;;;;-4.79;100.00;101706.22;5027888;28;20057;-65
2021/12/12 07:52:24;;;;;;;60.00;15.40;;;;;;;-4.70;100.00;101705.97;5026737;28;20532;-69
2021/12/12 07:55:14;;;;;;;45.53;13.23;;;;;;;-4.64;100.00;101702.13;5011710;28;20436;-66
2021/12/12 07:57:59;;;;;;;51.15;14.32;;;;;;;-4.59;100.00;101707.66;5016092;28;20579;-68
2021/12/12 08:00:47;;;;;;;46.97;14.23;;;;;;;-4.54;100.00;101714.94;5027003;28;20330;-69
2021/12/12 08:03:34;;;;;;;51.80;14.48;;;;;;;-4.64;100.00;101711.59;5014899;28;20060;-66
2021/12/12 08:06:19;;;;;;;51.63;15.18;;;;;;;-4.91;100.00;101703.66;5019010;28;20572;-62
2021/12/12 08:09:04;;;;;;;;;;;;;;;-4.76;100.00;101702.97;5026234;28;20078;-64
2021/12/12 08:11:50;;;;;;;51.35;14.05;;;;;;;-4.83;100.00;101695.56;5033353;28;19928;-62
2021/12/12 08:14:34;;;;;;;54.63;15.77;;;;;;;-4.58;100.00;101688.72;5014907;28;20057;-62
2021/12/12 08:17:21;;;;;;;48.38;14.40;;;;;;;-4.39;100.00;101692.72;5023926;28;20095;-63
2021/12/12 08:20:07;;;;;;;51.30;14.70;;;;;;;-4.72;100.00;101694.63;5027230;28;20536;-63
2021/12/12 08:22:54;;;;;;;50.92;14.90;;;;;;;-4.51;100.00;101702.19;5026615;28;20413;-66
2021/12/12 08:25:40;;;;;;;46.35;14.50;;;;;;;-4.52;100.00;101699.53;5018670;28;20473;-64
2021/12/12 08:28:28;;;;;;;45.80;13.98;;;;;;;-4.42;100.00;101700.28;5005811;28;20188;-66
2021/12/12 08:31:16;;;;;;;48.38;13.82;;;;;;;-4.32;100.00;101688.84;5012662;28;22172;-66
2021/12/12 08:34:08;;;;;;;46.25;14.70;;;;;;;-4.24;100.00;101683.41;4993448;28;20061;-63
2021/12/12 08:36:54;;;;;;;52.83;13.52;;;;;;;-4.17;100.00;101677.84;5022622;28;20098;-66
2021/12/12 08:39:40;;;;;;;53.72;16.25;;;;;;;-4.34;100.00;101691.34;5008251;28;20104;-65
2021/12/12 08:42:27;;;;;;;49.60;14.20;;;;;;;-4.38;100.00;101691.91;5030284;28;20119;-64
2021/12/12 08:45:17;;;;;;;50.05;16.00;;;;;;;-4.28;100.00;101690.88;5015179;28;20139;-65
2021/12/12 08:48:04;;;;;;;54.28;15.82;;;;;;;-4.40;100.00;101683.13;5021282;28;20057;-65
2021/12/12 08:50:53;;;;;;;46.38;15.35;;;;;;;-4.25;100.00;101671.25;5014588;28;20044;-65
2021/12/12 08:53:41;;;;;;;52.58;14.88;;;;;;;-4.18;100.00;101659.63;5024654;28;20080;-65
2021/12/12 08:56:42;;;;;;;47.58;15.98;;;;;;;-4.10;100.00;101661.94;5001799;28;20112;-65
2021/12/12 08:59:28;;;;;;;50.03;15.45;;;;;;;-3.89;100.00;101672.81;5012386;28;20472;-67
2021/12/12 09:02:17;;;;;;;50.78;16.08;;;;;;;-3.81;100.00;101676.88;5035168;28;20100;-70
2021/12/12 09:05:08;;;;;;;54.45;16.65;;;;;;;-3.99;100.00;101658.38;5016628;28;20528;-66
2021/12/12 09:08:00;;;;;;;47.55;15.32;;;;;;;-4.10;100.00;101666.22;5028852;28;20129;-66
2021/12/12 09:11:20;;;;;;;51.55;15.80;;;;;;;-3.81;100.00;101672.56;5024877;28;20126;-63
2021/12/12 09:14:23;;;;;;;58.40;15.65;;;;;;;-3.93;100.00;101676.91;4989070;28;20049;-63
2021/12/12 09:17:16;;;;;;;53.53;16.33;;;;;;;-3.95;100.00;101685.38;5009510;28;20052;-64
2021/12/12 09:20:04;;;;;;;50.38;15.38;;;;;;;-3.62;100.00;101696.31;4988292;28;20060;-65
2021/12/12 09:23:14;;;;;;;52.97;16.02;;;;;;;-3.33;100.00;101693.06;4987270;28;20115;-68
2021/12/12 09:26:21;;;;;;;50.00;15.02;;;;;;;-3.58;100.00;101677.56;4983369;28;20053;-66
2021/12/12 09:29:26;;;;;;;46.65;14.73;;;;;;;-3.70;100.00;101676.75;4986137;28;20142;-71
2021/12/12 09:32:29;;;;;;;47.20;14.63;;;;;;;-3.75;100.00;101672.97;4995668;28;20053;-66
2021/12/12 09:35:26;;;;;;;55.28;16.15;;;;;;;-3.63;100.00;101678.97;5001608;28;20695;-68
2021/12/12 09:38:20;;;;;;;46.10;14.60;;;;;;;-3.69;100.00;101682.88;5017206;28;20127;-69
2021/12/12 09:41:37;;;;;;;52.25;15.63;;;;;;;-3.92;100.00;101675.25;4984934;28;20414;-64
2021/12/12 09:44:27;;;;;;;;;;;;;;;-3.89;100.00;101678.00;4988108;28;20544;-64
2021/12/12 09:47:58;;;;;;;49.88;15.32;;;;;;;-3.89;100.00;101657.28;4991548;28;20052;-66
2021/12/12 09:51:17;;;;;;;46.25;13.88;;;;;;;-3.73;100.00;101673.97;5006938;28;20049;-64
2021/12/12 09:54:17;;;;;;;51.28;14.00;;;;;;;-3.67;100.00;101668.28;5006897;28;20498;-64
2021/12/12 09:57:11;;;;;;;46.60;14.18;;;;;;;-3.74;100.00;101658.31;5018201;28;20422;-66
2021/12/12 10:00:29;;;;;;;47.72;14.27;;;;;;;-3.53;100.00;101677.91;4997893;28;20056;-71
2021/12/12 10:03:48;;;;;;;52.28;14.82;;;;;;;-3.54;100.00;101673.47;4967889;28;20426;-70
2021/12/12 10:07:23;;;;;;;50.85;14.88;;;;;;;-3.65;100.00;101677.09;4945355;28;20051;-75
2021/12/12 10:10:15;;;;;;;44.55;15.48;;;;;;;-3.53;100.00;101672.72;4865954;29;20971;-70
2021/12/12 10:13:38;;;;;;;54.15;16.80;;;;;;;-3.31;100.00;101676.78;4841648;29;20067;-73
2021/12/12 10:16:46;;;;;;;59.25;17.50;;;;;;;-3.57;100.00;101675.91;4847051;29;20138;-70
2021/12/12 10:19:51;;;;;;;56.30;16.00;;;;;;;-3.22;100.00;101655.72;4839741;29;20084;-72
2021/12/12 10:22:52;;;;;;;53.25;15.40;;;;;;;-2.97;100.00;101661.69;4846337;29;20178;-70
2021/12/12 10:25:47;;;;;;;53.33;16.88;;;;;;;-3.27;100.00;101641.56;4851059;29;20542;-71
2021/12/12 10:28:44;;;;;;;50.10;16.45;;;;;;;-3.10;100.00;101644.44;4839847;29;20052;-63
2021/12/12 10:31:53;;;;;;;53.55;16.60;;;;;;;-3.19;100.00;101648.16;4856097;29;20121;-66
2021/12/12 10:34:47;;;;;;;56.25;16.48;;;;;;;-2.99;100.00;101640.84;4858546;29;20539;-73
2021/12/12 10:38:00;;;;;;;58.28;16.73;;;;;;;-3.32;100.00;101642.97;4864300;29;20048;-74
2021/12/12 10:40:52;;;;;;;63.58;18.63;;;;;;;-3.14;100.00;101633.75;4856555;29;20584;-73
2021/12/12 10:43:41;;;;;;;58.45;18.33;;;;;;;-3.13;100.00;101636.47;4876179;29;20086;-70
2021/12/12 10:46:38;;;;;;;63.00;18.92;;;;;;;-3.01;100.00;101628.56;4935571;28;20101;-66
2021/12/12 10:49:38;;;;;;;60.63;18.35;;;;;;;-2.83;100.00;101629.72;4984536;28;20590;-76
2021/12/12 10:52:37;;;;;;;53.63;16.80;;;;;;;-2.91;100.00;101630.94;4985003;28;20537;-72
2021/12/12 10:55:32;;;;;;;69.97;18.42;;;;;;;-3.28;100.00;101629.41;4988451;28;20053;-65
2021/12/12 10:58:38;;;;;;;54.67;16.20;;;;;;;-3.06;100.00;101635.16;4973033;28;20068;-64
2021/12/12 11:01:34;;;;;;;56.22;16.48;;;;;;;-3.08;100.00;101629.88;4986328;28;20899;-65
2021/12/12 11:04:24;;;;;;;50.17;15.60;;;;;;;-3.02;100.00;101625.06;4991057;28;20046;-67
2021/12/12 11:07:30;;;;;;;65.07;18.02;;;;;;;-3.13;100.00;101620.91;4968920;28;20635;-61
2021/12/12 11:10:21;;;;;;;55.22;17.10;;;;;;;-2.99;100.00;101620.09;4976201;28;20565;-65
2021/12/12 11:13:19;;;;;;;59.63;16.67;;;;;;;-2.83;100.00;101621.91;4972344;28;20504;-67
2021/12/12 11:16:15;;;;;;;57.67;15.93;;;;;;;-2.71;100.00;101622.69;4968374;28;20053;-72
2021/12/12 11:19:35;;;;;;;53.78;16.17;;;;;;;-2.66;100.00;101622.16;5012391;28;20089;-67
2021/12/12 11:22:30;;;;;;;61.38;17.13;;;;;;;-3.08;100.00;101629.88;5039118;28;20067;-70
2021/12/12 11:25:38;;;;;;;57.42;17.35;;;;;;;-3.33;100.00;101629.09;5020051;28;20048;-66
2021/12/12 11:28:30;;;;;;;61.13;16.85;;;;;;;-3.22;100.00;101625.50;5025424;28;20067;-67
2021/12/12 11:31:26;;;;;;;64.32;18.00;;;;;;;-3.01;100.00;101633.75;5027099;28;20104;-69
2021/12/12 11:34:12;;;;;;;65.13;19.17;;;;;;;-2.90;100.00;101628.44;5010738;28;20528;-70
2021/12/12 11:37:25;;;;;;;64.28;18.05;;;;;;;-2.78;100.00;101623.09;5008734;28;20115;-68
2021/12/12 11:40:37;;;;;;;61.72;17.48;;;;;;;-2.71;100.00;101626.19;5007608;28;20057;-73
2021/12/12 11:43:32;;;;;;;57.92;18.80;;;;;;;-2.65;100.00;101628.28;5020739;28;20128;-70
2021/12/12 11:46:33;;;;;;;;;;;;;;;-2.54;100.00;101622.91;5023170;28;20118;-69
2021/12/12 11:49:38;;;;;;;54.83;16.00;;;;;;;-2.76;100.00;101619.81;5022831;28;20044;-72
2021/12/12 11:52:39;;;;;;;54.65;17.35;;;;;;;-2.53;100.00;101621.22;5033001;28;20131;-74
2021/12/12 11:55:40;;;;;;;64.28;18.85;;;;;;;-2.66;100.00;101606.59;5025557;28;20064;-67
2021/12/12 11:58:40;;;;;;;69.43;19.35;;;;;;;-2.73;100.00;101609.59;5022322;28;20141;-66
2021/12/12 12:01:51;;;;;;;59.10;17.23;;;;;;;-2.80;100.00;101615.25;5016127;28;20052;-68
2021/12/12 12:04:35;;;;;;;74.43;18.25;;;;;;;-2.54;100.00;101617.72;5024976;28;20179;-70
2021/12/12 12:07:32;;;;;;;;;;;;;;;-2.55;100.00;101613.34;5010644;28;20056;-72
2021/12/12 12:10:38;;;;;;;58.13;18.17;;;;;;;-2.48;100.00;101609.41;5017688;28;19996;-67
2021/12/12 12:13:41;;;;;;;61.03;17.30;;;;;;;-2.39;100.00;101618.66;5025179;28;20048;-65
2021/12/12 12:16:35;;;;;;;56.45;17.30;;;;;;;-2.26;100.00;101612.50;5008850;28;20810;-63
2021/12/12 12:19:55;;;;;;;66.70;17.92;;;;;;;-2.61;100.00;101610.34;5022593;28;20575;-69
2021/12/12 12:23:06;;;;;;;63.38;17.80;;;;;;;-2.87;100.00;101607.88;5022826;28;20068;-71
2021/12/12 12:29:30;;;;;;;64.05;17.80;;;;;;;-2.29;100.00;101602.81;5019635;28;20052;-68
2021/12/12 12:32:54;;;;;;;65.38;18.85;;;;;;;-2.17;100.00;101606.13;5002608;28;20053;-60
2021/12/12 12:36:16;;;;;;;58.58;17.90;;;;;;;-2.04;100.00;101612.97;5027134;28;20129;-65
2021/12/12 12:39:29;;;;;;;70.65;20.63;;;;;;;-1.96;100.00;101619.50;4999443;28;20381;-61
2021/12/12 12:42:41;;;;;;;58.75;18.13;;;;;;;-1.85;100.00;101619.34;5027307;28;20514;-64
2021/12/12 12:46:06;;;;;;;69.72;18.98;;;;;;;-1.80;100.00;101619.59;5027183;28;20067;-65
2021/12/12 12:49:13;;;;;;;72.22;20.77;;;;;;;-1.55;100.00;101620.19;4986514;28;20064;-65
2021/12/12 12:52:29;;;;;;;79.13;19.70;;;;;;;-1.40;100.00;101608.06;4991212;28;20421;-64
2021/12/12 12:55:52;;;;;;;59.60;19.30;;;;;;;-1.38;100.00;101622.06;5020547;28;20100;-64
2021/12/12 12:58:55;;;;;;;65.65;19.80;;;;;;;-1.40;100.00;101624.59;4989553;28;20068;-63
2021/12/12 13:02:11;;;;;;;73.60;21.40;;;;;;;-1.41;100.00;101621.88;4989945;28;20480;-62
2021/12/12 13:04:57;;;;;;;79.55;21.55;;;;;;;-1.55;100.00;101626.31;4971294;28;20052;-66
2021/12/12 13:07:41;;;;;;;75.25;21.35;;;;;;;-1.61;100.00;101632.84;5005547;28;20048;-66
2021/12/12 13:10:31;;;;;;;69.55;19.88;;;;;;;-1.51;100.00;101627.34;4991031;28;20049;-70
2021/12/12 13:13:27;;;;;;;74.15;20.10;;;;;;;-1.68;100.00;101626.41;5005579;28;20056;-63
2021/12/12 13:16:23;;;;;;;63.83;20.55;;;;;;;-1.87;100.00;101633.94;4961634;28;20053;-62
2021/12/12 13:19:23;;;;;;;59.55;18.77;;;;;;;-1.56;100.00;101618.41;4998900;28;20124;-61
2021/12/12 13:22:44;;;;;;;72.43;19.35;;;;;;;-1.57;100.00;101634.81;4986231;28;20103;-65
2021/12/12 13:25:49;;;;;;;59.00;19.10;;;;;;;-1.51;100.00;101636.06;4939741;28;20412;-71
2021/12/12 13:29:03;;;;;;;65.10;19.27;;;;;;;-1.66;100.00;101634.31;4923532;29;20094;-64